METAR Data
IDs: Format: Raw Decoded Include TAF

Data at: 0125 UTC 25 Mar 2019

KOXV 250115Z AUTO 01011KT 3SM BR OVC005 08/08 A3005 RMK AO2
KOXV 250055Z AUTO 02009KT 3SM BR OVC005 08/08 A3005 RMK AO2
KOXV 250035Z AUTO 02007KT 1 1/4SM BR OVC004 08/08 A3003 RMK AO2
KOXV 250015Z AUTO 03008KT 1 1/2SM BR OVC004 08/08 A3003 RMK AO2
KOXV 242355Z AUTO 03010KT 1SM BR OVC004 08/08 A3002 RMK AO2
KOXV 242335Z AUTO 02008KT 1 1/2SM BR OVC006 09/09 A3001 RMK AO2
KOXV 242315Z AUTO 02009KT 3SM BR OVC008 09/09 A3001 RMK AO2
KOXV 242255Z AUTO 02006KT 5SM BR OVC011 09/09 A3000 RMK AO2
KOXV 242235Z AUTO 02008KT 5SM -RA OVC012 10/10 A3000 RMK AO2
KOXV 242215Z AUTO 02009KT 7SM OVC012 10/10 A2999 RMK AO2
KOXV 242155Z AUTO 02008KT 7SM OVC011 10/10 A2999 RMK AO2
KOXV 242135Z AUTO 01010KT 8SM BKN010 OVC015 10/10 A2999 RMK AO2
KOXV 242115Z AUTO 03007KT 9SM OVC010 10/10 A2998 RMK AO2
KOXV 242055Z AUTO 03004KT 9SM BKN010 OVC015 10/10 A2997 RMK AO2
KOXV 242035Z AUTO 06005KT 9SM BKN009 OVC013 10/10 A2997 RMK AO2
KOXV 242015Z AUTO 04005KT 7SM OVC007 10/10 A2997 RMK AO2
KOXV 241955Z AUTO 05006KT 6SM BR OVC007 10/10 A2996 RMK AO2 P0001
KOXV 241935Z AUTO 06003KT 7SM -RA OVC007 10/10 A2997 RMK AO2
KOXV 241915Z AUTO 07005KT 5SM -RA OVC007 10/10 A2996 RMK AO2
KOXV 241855Z AUTO 11006KT 7SM OVC006 09/09 A2997 RMK AO2
KOXV 241835Z AUTO 08007KT 7SM OVC006 09/09 A2996 RMK AO2
KOXV 241815Z AUTO 11006KT 6SM BR OVC005 09/09 A2998 RMK AO2
KOXV 241755Z AUTO 13004KT 5SM BR OVC005 09/09 A2999 RMK AO2 P0001
KOXV 241735Z AUTO VRB03KT 3SM -RA SCT005 BKN016 BKN031 08/08 A2999 RMK AO2
KOXV 241715Z AUTO 06006KT 4SM -RA FEW007 BKN016 BKN044 08/08 A2999 RMK AO2
KOXV 241655Z AUTO 08006KT 5SM BR SCT007 OVC016 08/08 A3000 RMK AO2
KOXV 241635Z AUTO 10005KT 5SM BR FEW006 BKN016 08/08 A3000 RMK AO2
KOXV 241615Z AUTO 12006KT 4SM BR BKN017 08/08 A3000 RMK AO2
KOXV 241555Z AUTO 14006KT 5SM BR FEW007 BKN017 08/08 A3000 RMK AO2 P0001
KOXV 241535Z AUTO 14006KT 5SM BR FEW006 BKN016 08/08 A3000 RMK AO2
KOXV 241515Z AUTO 11004KT 4SM BR BKN016 08/08 A2999 RMK AO2
KOXV 241455Z AUTO 10007KT 5SM BR OVC017 08/08 A2998 RMK AO2
KOXV 241435Z AUTO 09006KT 6SM BR OVC018 08/08 A2999 RMK AO2
KOXV 241415Z AUTO 10005KT 6SM BR OVC018 07/07 A2999 RMK AO2
KOXV 241355Z AUTO 11005KT 6SM BR OVC018 07/07 A2999 RMK AO2
KOXV 241335Z AUTO 12005KT 5SM BR OVC018 07/07 A2999 RMK AO2
KOXV 241315Z AUTO 11006KT 5SM BR OVC019 07/07 A2999 RMK AO2
KOXV 241255Z AUTO 11005KT 5SM BR OVC020 07/07 A2999 RMK AO2
KOXV 241235Z AUTO 10006KT 5SM BR OVC020 07/07 A2998 RMK AO2
KOXV 241215Z AUTO 11006KT 6SM BR OVC022 07/07 A2999 RMK AO2
KOXV 241155Z AUTO 10004KT 7SM OVC022 07/07 A2999 RMK AO2
KOXV 241135Z AUTO 10005KT 8SM OVC022 07/07 A2999 RMK AO2
KOXV 241115Z AUTO 11005KT 9SM OVC021 07/07 A2999 RMK AO2
KOXV 241055Z AUTO 11004KT 10SM OVC022 07/07 A2999 RMK AO2
KOXV 241035Z AUTO 12004KT 9SM OVC022 07/07 A3000 RMK AO2
KOXV 241015Z AUTO 12005KT 9SM OVC023 07/06 A2999 RMK AO2
KOXV 240955Z AUTO 12004KT 9SM OVC024 07/07 A3000 RMK AO2
KOXV 240935Z AUTO 10004KT 10SM OVC023 07/07 A3000 RMK AO2
KOXV 240915Z AUTO 11005KT 10SM OVC025 07/07 A3001 RMK AO2
KOXV 240855Z AUTO 10004KT 10SM BKN026 OVC038 07/07 A3001 RMK AO2
KOXV 240835Z AUTO 11004KT 10SM BKN026 OVC035 07/07 A3002 RMK AO2
KOXV 240815Z AUTO 11004KT 10SM OVC036 07/07 A3002 RMK AO2
KOXV 240755Z AUTO 11005KT 10SM OVC036 07/07 A3002 RMK AO2
KOXV 240735Z AUTO 12006KT 10SM OVC035 07/07 A3003 RMK AO2
KOXV 240715Z AUTO 13007KT 10SM SCT027 OVC036 07/07 A3004 RMK AO2
KOXV 240655Z AUTO 14008KT 10SM BKN028 OVC034 07/07 A3004 RMK AO2
KOXV 240635Z AUTO 14007KT 10SM FEW004 OVC035 07/07 A3004 RMK AO2
KOXV 240615Z AUTO 14009G14KT 8SM FEW003 SCT039 OVC048 08/06 A3005 RMK AO2
KOXV 240555Z AUTO 13007KT 10SM SCT049 OVC065 08/06 A3005 RMK AO2
KOXV 240535Z AUTO 13009KT 10SM OVC060 08/06 A3005 RMK AO2
KOXV 240515Z AUTO 13009KT 10SM SCT044 OVC060 08/06 A3005 RMK AO2
KOXV 240455Z AUTO 12009KT 10SM OVC044 08/06 A3006 RMK AO2
KOXV 240435Z AUTO 12010KT 10SM BKN045 OVC050 08/06 A3006 RMK AO2
KOXV 240415Z AUTO 11007G13KT 10SM SCT044 BKN050 OVC060 08/06 A3007 RMK AO2
KOXV 240355Z AUTO 10006KT 10SM FEW032 BKN046 OVC075 08/05 A3007 RMK AO2
KOXV 240335Z AUTO 11008KT 7SM FEW003 BKN037 OVC070 08/05 A3007 RMK AO2
KOXV 240315Z AUTO 13009KT 10SM BKN038 OVC046 09/04 A3008 RMK AO2
KOXV 240255Z AUTO 12008KT 10SM FEW027 BKN048 OVC060 09/04 A3008 RMK AO2 P0001
KOXV 240235Z AUTO 13007KT 6SM HZ FEW027 SCT035 OVC060 09/03 A3009 RMK AO2
KOXV 240215Z AUTO 12006KT 10SM FEW038 OVC060 10/02 A3008 RMK AO2
KOXV 240155Z AUTO 11006KT 10SM FEW012 SCT047 OVC065 10/02 A3008 RMK AO2
KOXV 240135Z AUTO 11007KT 10SM BKN070 OVC085 10/02 A3008 RMK AO2
KOXV 240115Z AUTO 11007KT 10SM OVC075 10/01 A3007 RMK AO2
KOXV 240055Z AUTO 12006KT 10SM OVC080 10/01 A3008 RMK AO2
KOXV 240035Z AUTO 12008KT 10SM OVC085 11/01 A3008 RMK AO2
KOXV 240015Z AUTO 13008G14KT 10SM OVC090 11/01 A3009 RMK AO2
KOXV 232355Z AUTO 13008KT 10SM OVC095 11/00 A3009 RMK AO2
KOXV 232335Z AUTO 13009KT 10SM OVC100 12/01 A3009 RMK AO2
KOXV 232315Z AUTO 13010G16KT 10SM OVC095 12/00 A3009 RMK AO2
KOXV 232255Z AUTO 14012KT 5SM HZ BKN095 BKN120 12/00 A3010 RMK AO2
KOXV 232235Z AUTO 13013KT 10SM SCT090 12/00 A3009 RMK AO2
KOXV 232215Z AUTO 12010G17KT 10SM SCT090 12/00 A3009 RMK AO2
KOXV 232155Z AUTO 13010KT 10SM FEW100 12/01 A3010 RMK AO2
KOXV 232135Z AUTO 12009G15KT 10SM BKN100 12/00 A3011 RMK AO2
KOXV 232115Z AUTO 13009G15KT 10SM BKN100 12/00 A3011 RMK AO2
KOXV 232055Z AUTO 12009G18KT 10SM CLR 12/00 A3012 RMK AO2
KOXV 232035Z AUTO 12010KT 10SM FEW080 FEW100 13/01 A3013 RMK AO2
KOXV 232015Z AUTO 10007KT 10SM BKN110 13/00 A3012 RMK AO2
KOXV 231955Z AUTO 13009KT 10SM SCT110 13/M00 A3014 RMK AO2
KOXV 231935Z AUTO 14009KT 10SM CLR 12/M00 A3014 RMK AO2
KOXV 231915Z AUTO 15009G14KT 10SM FEW120 13/M01 A3015 RMK AO2
KOXV 231855Z AUTO 15011KT 10SM BKN120 13/00 A3016 RMK AO2
KOXV 231835Z AUTO 16009G15KT 10SM FEW120 13/M00 A3017 RMK AO2
KOXV 231815Z AUTO 13008KT 10SM CLR 12/01 A3018 RMK AO2
KOXV 231755Z AUTO 15009G14KT 10SM CLR 11/00 A3018 RMK AO2
KOXV 231735Z AUTO 13007KT 10SM CLR 11/01 A3018 RMK AO2
KOXV 231715Z AUTO 14012KT 10SM FEW140 10/00 A3018 RMK AO2
KOXV 231655Z AUTO 14011KT 10SM CLR 10/01 A3019 RMK AO2
KOXV 231635Z AUTO 14009KT 10SM CLR 09/01 A3020 RMK AO2
KOXV 231615Z AUTO 13010KT 10SM CLR 09/02 A3020 RMK AO2
KOXV 231555Z AUTO 16009G14KT 6SM HZ CLR 09/02 A3020 RMK AO2
KOXV 231535Z AUTO 14010KT 10SM CLR 08/01 A3021 RMK AO2
KOXV 231515Z AUTO 15009KT 10SM CLR 07/02 A3022 RMK AO2
KOXV 231455Z AUTO 14009KT 10SM CLR 06/02 A3021 RMK AO2
KOXV 231435Z AUTO 13008KT 10SM CLR 05/03 A3022 RMK AO2
KOXV 231415Z AUTO 13007KT 10SM CLR 04/04 A3022 RMK AO2
KOXV 231355Z AUTO 12005KT 10SM CLR 03/03 A3022 RMK AO2
KOXV 231335Z AUTO 11005KT 10SM CLR 02/02 A3022 RMK AO2